createdAt,value
2023-04-15T00:00:59.814Z,5.00
2023-04-15T00:03:27.186Z,4.05
2023-04-15T00:05:54.339Z,4.75
2023-04-15T00:08:21.082Z,3.90
2023-04-15T00:10:49.402Z,4.78
2023-04-15T00:13:16.565Z,3.78
2023-04-15T00:15:43.496Z,4.50
2023-04-15T00:18:10.374Z,4.65
2023-04-15T00:20:37.571Z,4.95
2023-04-15T00:23:04.570Z,4.28
2023-04-15T00:25:31.897Z,4.43
2023-04-15T00:27:59.026Z,4.82
2023-04-15T00:30:26.597Z,4.47
2023-04-15T00:32:53.856Z,4.28
2023-04-15T00:35:21.681Z,4.88
2023-04-15T00:37:48.439Z,4.57
2023-04-15T00:40:18.818Z,4.95
2023-04-15T00:42:45.773Z,4.63
2023-04-15T00:45:12.993Z,5.05
2023-04-15T00:47:42.926Z,4.57
2023-04-15T00:50:11.056Z,4.25
2023-04-15T00:52:37.890Z,4.95
2023-04-15T00:55:05.512Z,5.28
2023-04-15T00:57:33.107Z,5.25
2023-04-15T01:00:01.049Z,5.40
2023-04-15T01:02:28.161Z,4.63
2023-04-15T01:04:56.415Z,5.50
2023-04-15T01:07:23.178Z,5.05
2023-04-15T01:09:51.273Z,5.20
2023-04-15T01:12:20.477Z,4.72
2023-04-15T01:14:47.194Z,5.13
2023-04-15T01:17:14.518Z,4.90
2023-04-15T01:19:42.333Z,4.97
2023-04-15T01:22:09.554Z,5.40
2023-04-15T01:24:37.601Z,4.80
2023-04-15T01:27:05.380Z,5.20
2023-04-15T01:29:38.332Z,5.05
2023-04-15T01:32:05.787Z,5.35
2023-04-15T01:34:35.010Z,5.45
2023-04-15T01:37:02.337Z,5.03
2023-04-15T01:39:29.069Z,4.75
2023-04-15T01:41:55.773Z,4.97
2023-04-15T01:44:22.689Z,5.55
2023-04-15T01:46:49.512Z,5.70
2023-04-15T01:49:16.968Z,5.30
2023-04-15T01:51:43.833Z,4.85
2023-04-15T01:54:10.482Z,5.22
2023-04-15T01:56:37.393Z,5.38
2023-04-15T01:59:04.059Z,5.45
2023-04-15T02:01:30.880Z,5.05
2023-04-15T02:03:58.028Z,5.38
2023-04-15T02:06:25.429Z,4.95
2023-04-15T02:08:52.108Z,5.40
2023-04-15T02:11:19.747Z,5.82
2023-04-15T02:13:46.425Z,4.65
2023-04-15T02:16:17.789Z,5.93
2023-04-15T02:18:47.086Z,5.80
2023-04-15T02:21:14.718Z,5.97
2023-04-15T02:23:41.558Z,5.90
2023-04-15T02:26:08.315Z,5.55
2023-04-15T02:28:35.055Z,6.43
2023-04-15T02:31:09.567Z,5.22
2023-04-15T02:33:37.058Z,5.38
2023-04-15T02:36:04.303Z,6.32
2023-04-15T02:38:31.985Z,5.70
2023-04-15T02:40:58.703Z,5.53
2023-04-15T02:43:26.512Z,6.00
2023-04-15T02:45:53.407Z,5.27
2023-04-15T02:48:20.598Z,5.40
2023-04-15T02:50:48.079Z,5.47
2023-04-15T02:53:14.882Z,5.72
2023-04-15T02:55:42.809Z,5.70
2023-04-15T02:58:09.631Z,6.03
2023-04-15T03:00:36.494Z,5.75
2023-04-15T03:03:05.675Z,5.82
2023-04-15T03:05:32.720Z,5.70
2023-04-15T03:08:01.054Z,5.80
2023-04-15T03:10:27.937Z,6.47
2023-04-15T03:12:54.586Z,5.90
2023-04-15T03:15:21.336Z,5.88
2023-04-15T03:17:49.562Z,6.38
2023-04-15T03:20:17.030Z,5.80
2023-04-15T03:22:43.985Z,6.07
2023-04-15T03:25:10.714Z,6.07
2023-04-15T03:27:38.494Z,5.43
2023-04-15T03:30:06.594Z,5.87
2023-04-15T03:32:33.865Z,6.85
2023-04-15T03:35:00.976Z,5.88
2023-04-15T03:37:27.712Z,6.47
2023-04-15T03:39:54.443Z,6.78
2023-04-15T03:42:21.200Z,6.35
2023-04-15T03:44:47.899Z,5.82
2023-04-15T03:47:14.586Z,6.25
2023-04-15T03:49:41.423Z,6.47
2023-04-15T03:52:08.186Z,6.68
2023-04-15T03:54:34.876Z,6.07
2023-04-15T03:57:01.733Z,6.45
2023-04-15T03:59:28.817Z,6.28
2023-04-15T04:01:55.631Z,6.45
2023-04-15T04:04:22.525Z,7.03
2023-04-15T04:06:49.285Z,6.80
2023-04-15T04:09:16.209Z,6.38
2023-04-15T04:11:42.849Z,7.10
2023-04-15T04:14:09.491Z,7.07
2023-04-15T04:16:36.351Z,6.47
2023-04-15T04:19:03.281Z,7.07
2023-04-15T04:21:30.784Z,7.65
2023-04-15T04:23:57.503Z,7.00
2023-04-15T04:26:24.244Z,6.63
2023-04-15T04:28:50.879Z,7.30
2023-04-15T04:31:17.626Z,7.30
2023-04-15T04:33:44.331Z,6.75
2023-04-15T04:36:11.018Z,6.60
2023-04-15T04:38:37.671Z,6.47
2023-04-15T04:41:04.490Z,7.63
2023-04-15T04:43:31.317Z,6.97
2023-04-15T04:45:58.063Z,7.25
2023-04-15T04:48:24.778Z,8.00
2023-04-15T04:50:51.454Z,7.15
2023-04-15T04:53:18.253Z,7.35
2023-04-15T04:55:46.129Z,7.18
2023-04-15T04:58:12.860Z,7.47
2023-04-15T05:00:40.691Z,7.10
2023-04-15T05:03:07.593Z,7.20
2023-04-15T05:05:35.821Z,6.85
2023-04-15T05:08:02.835Z,7.25
2023-04-15T05:10:29.842Z,7.72
2023-04-15T05:12:57.776Z,7.82
2023-04-15T05:15:24.759Z,9.27
2023-04-15T05:17:51.709Z,8.95
2023-04-15T05:20:18.504Z,9.15
2023-04-15T05:22:45.228Z,9.82
2023-04-15T05:25:12.001Z,9.25
2023-04-15T05:27:38.683Z,9.85
2023-04-15T05:30:05.983Z,7.97
2023-04-15T05:32:32.653Z,8.48
2023-04-15T05:34:59.519Z,7.93
2023-04-15T05:37:26.303Z,7.22
2023-04-15T05:39:53.511Z,7.35
2023-04-15T05:42:23.059Z,7.82
2023-04-15T05:44:49.735Z,8.02
2023-04-15T05:47:16.625Z,7.93
2023-04-15T05:49:43.440Z,7.03
2023-04-15T05:52:10.328Z,7.70
2023-04-15T05:54:38.958Z,7.40
2023-04-15T05:57:05.763Z,8.30
2023-04-15T05:59:32.697Z,8.27
2023-04-15T06:01:59.479Z,7.57
2023-04-15T06:04:26.432Z,8.05
2023-04-15T06:06:53.268Z,8.15
2023-04-15T06:09:20.183Z,8.35
2023-04-15T06:11:46.914Z,7.97
2023-04-15T06:14:13.569Z,8.68
2023-04-15T06:16:40.351Z,7.72
2023-04-15T06:19:07.134Z,8.10
2023-04-15T06:21:33.967Z,7.93
2023-04-15T06:24:03.867Z,7.90
2023-04-15T06:26:31.226Z,8.32
2023-04-15T06:28:58.084Z,8.57
2023-04-15T06:31:24.853Z,8.85
2023-04-15T06:33:51.591Z,9.38
2023-04-15T06:36:18.444Z,9.63
2023-04-15T06:38:45.502Z,8.80
2023-04-15T06:41:12.406Z,8.70
2023-04-15T06:43:39.882Z,8.88
2023-04-15T06:46:07.017Z,9.65
2023-04-15T06:48:33.887Z,10.50
2023-04-15T06:51:00.585Z,10.18
2023-04-15T06:53:28.102Z,10.73
2023-04-15T06:55:55.032Z,10.65
2023-04-15T06:58:22.066Z,11.35
2023-04-15T07:00:49.149Z,10.98
2023-04-15T07:03:16.093Z,11.02
2023-04-15T07:05:43.415Z,11.75
2023-04-15T07:08:10.317Z,11.27
2023-04-15T07:10:37.135Z,11.27
2023-04-15T07:13:05.740Z,11.18
2023-04-15T07:15:32.395Z,10.77
2023-04-15T07:17:59.206Z,11.20
2023-04-15T07:20:26.180Z,11.18
2023-04-15T07:22:53.184Z,11.38
2023-04-15T07:25:20.151Z,11.13
2023-04-15T07:27:47.402Z,11.90
2023-04-15T07:30:14.462Z,11.70
2023-04-15T07:32:42.177Z,11.20
2023-04-15T07:35:09.854Z,11.02
2023-04-15T07:37:36.629Z,10.88
2023-04-15T07:40:04.991Z,10.68
2023-04-15T07:42:31.739Z,10.00
2023-04-15T07:44:58.520Z,9.80
2023-04-15T07:47:25.750Z,9.25
2023-04-15T07:49:52.734Z,9.15
2023-04-15T07:52:19.470Z,9.15
2023-04-15T07:54:46.311Z,10.57
2023-04-15T07:57:13.191Z,8.90
2023-04-15T07:59:40.046Z,8.32
2023-04-15T08:02:08.540Z,7.63
2023-04-15T08:04:35.524Z,8.27
2023-04-15T08:07:03.009Z,5.97
2023-04-15T08:09:29.845Z,6.78
2023-04-15T08:11:57.609Z,7.32
2023-04-15T08:14:25.447Z,6.33
2023-04-15T08:16:55.013Z,7.50
2023-04-15T08:19:22.948Z,7.68
2023-04-15T08:21:50.157Z,7.63
2023-04-15T08:24:17.261Z,7.63
2023-04-15T08:26:44.425Z,7.25
2023-04-15T08:29:11.714Z,6.68
2023-04-15T08:31:41.227Z,7.95
2023-04-15T08:34:07.930Z,7.78
2023-04-15T08:36:34.981Z,7.55
2023-04-15T08:39:02.331Z,6.90
2023-04-15T08:41:34.472Z,5.55
2023-04-15T08:44:07.497Z,5.85
2023-04-15T08:46:37.309Z,5.65
2023-04-15T08:49:05.405Z,6.20
2023-04-15T08:51:33.652Z,6.38
2023-04-15T08:54:01.569Z,5.95
2023-04-15T08:56:28.880Z,5.43
2023-04-15T08:58:57.649Z,4.15
2023-04-15T09:01:25.596Z,3.28
2023-04-15T09:03:54.602Z,3.08
2023-04-15T09:06:22.697Z,3.20
2023-04-15T09:08:53.375Z,3.25
2023-04-15T09:11:22.332Z,3.58
2023-04-15T09:13:49.969Z,2.92
2023-04-15T09:16:17.380Z,3.10
2023-04-15T09:18:44.545Z,2.92
2023-04-15T09:21:14.993Z,3.20
2023-04-15T09:23:54.499Z,3.60
2023-04-15T09:26:31.560Z,3.08
2023-04-15T09:29:06.761Z,3.47
2023-04-15T09:31:34.164Z,3.60
2023-04-15T09:34:01.685Z,4.22
2023-04-15T09:36:32.092Z,3.85
2023-04-15T09:38:59.904Z,3.67
2023-04-15T09:41:28.544Z,4.80
2023-04-15T09:46:41.648Z,4.95
2023-04-15T09:49:09.639Z,4.90
2023-04-15T09:51:37.375Z,4.70
2023-04-15T09:54:04.844Z,3.87
2023-04-15T09:56:41.632Z,4.22
2023-04-15T09:59:09.467Z,3.58
2023-04-15T10:01:37.245Z,3.03
2023-04-15T10:04:05.374Z,3.90
2023-04-15T10:06:32.803Z,2.97
2023-04-15T10:09:00.118Z,3.28
2023-04-15T10:11:31.576Z,3.92
2023-04-15T10:13:59.150Z,3.65
2023-04-15T10:16:31.531Z,3.35
2023-04-15T10:18:59.109Z,3.28
2023-04-15T10:21:26.186Z,3.38
2023-04-15T10:23:53.493Z,3.25
2023-04-15T10:26:20.941Z,3.28
2023-04-15T10:28:48.969Z,3.22
2023-04-15T10:31:16.322Z,4.10
2023-04-15T10:33:44.111Z,3.65
2023-04-15T10:36:11.900Z,3.87
2023-04-15T10:38:39.062Z,3.75
2023-04-15T10:41:20.105Z,4.22
2023-04-15T10:43:52.857Z,4.60
2023-04-15T10:46:21.998Z,4.85
2023-04-15T10:48:52.990Z,4.95
2023-04-15T10:51:30.672Z,4.75
2023-04-15T10:53:58.867Z,4.40
2023-04-15T10:56:26.259Z,4.40
2023-04-15T10:58:53.407Z,4.07
2023-04-15T11:01:23.239Z,4.43
2023-04-15T11:03:51.626Z,4.68
2023-04-15T11:06:19.087Z,3.83
2023-04-15T11:09:03.381Z,3.42
2023-04-15T11:11:49.448Z,3.05
2023-04-15T11:14:16.821Z,3.20
2023-04-15T11:16:48.093Z,3.28
2023-04-15T11:19:15.894Z,2.50
2023-04-15T11:21:43.043Z,2.47
2023-04-15T11:24:10.152Z,1.80
2023-04-15T11:26:37.396Z,2.00
2023-04-15T11:29:05.354Z,2.00
2023-04-15T11:31:32.771Z,1.85
2023-04-15T11:34:02.194Z,2.45
2023-04-15T11:36:30.249Z,2.28
2023-04-15T11:38:58.514Z,1.95
2023-04-15T11:41:25.844Z,2.35
2023-04-15T11:43:53.487Z,1.85
2023-04-15T11:46:22.706Z,1.90
2023-04-15T11:48:49.960Z,2.20
2023-04-15T11:51:17.088Z,1.98
2023-04-15T11:53:44.236Z,1.73
2023-04-15T11:56:12.159Z,1.70
2023-04-15T11:58:39.563Z,1.95
2023-04-15T12:01:09.284Z,1.90
2023-04-15T12:03:44.325Z,1.65
2023-04-15T12:06:25.337Z,1.38
2023-04-15T12:08:55.514Z,1.80
2023-04-15T12:11:29.583Z,1.60
2023-04-15T12:13:59.655Z,1.45
2023-04-15T12:16:28.807Z,1.60
2023-04-15T12:18:59.551Z,1.77
2023-04-15T12:21:27.873Z,1.90
2023-04-15T12:23:58.735Z,1.65
2023-04-15T12:26:32.880Z,1.80
2023-04-15T12:29:02.967Z,2.00
2023-04-15T12:31:30.337Z,1.70
2023-04-15T12:33:58.668Z,1.60
2023-04-15T12:36:26.022Z,1.48
2023-04-15T12:38:53.292Z,1.50
2023-04-15T12:41:21.909Z,1.65
2023-04-15T12:46:17.136Z,1.42
2023-04-15T12:48:44.337Z,1.42
2023-04-15T12:51:11.514Z,1.00
2023-04-15T12:53:38.636Z,1.10
2023-04-15T12:56:06.527Z,1.20
2023-04-15T12:58:33.512Z,1.35
2023-04-15T13:01:00.371Z,1.65
2023-04-15T13:03:27.246Z,1.40
2023-04-15T13:05:54.542Z,1.55
2023-04-15T13:08:21.734Z,1.63
2023-04-15T13:10:48.819Z,1.50
2023-04-15T13:13:15.935Z,1.85
2023-04-15T13:15:45.698Z,1.60
2023-04-15T13:18:13.171Z,1.33
2023-04-15T13:20:41.410Z,1.27
2023-04-15T13:23:08.618Z,1.48
2023-04-15T13:25:35.978Z,1.40
2023-04-15T13:28:03.306Z,1.40
2023-04-15T13:30:31.524Z,1.23
2023-04-15T13:32:58.646Z,1.10
2023-04-15T13:35:25.850Z,1.48
2023-04-15T13:37:55.155Z,1.17
2023-04-15T13:40:22.468Z,1.40
2023-04-15T13:42:49.658Z,1.17
2023-04-15T13:45:16.905Z,1.10
2023-04-15T13:47:44.097Z,1.13
2023-04-15T13:50:12.567Z,1.13
2023-04-15T13:52:40.776Z,1.27
2023-04-15T13:55:20.383Z,1.05
2023-04-15T13:57:48.411Z,1.00
2023-04-15T14:00:15.831Z,1.58
2023-04-15T14:02:43.166Z,1.70
2023-04-15T14:05:11.334Z,0.90
2023-04-15T14:07:38.592Z,1.00
2023-04-15T14:10:05.937Z,0.90
2023-04-15T14:12:33.165Z,1.35
2023-04-15T14:15:00.294Z,1.30
2023-04-15T14:17:27.654Z,0.93
2023-04-15T14:19:54.746Z,1.13
2023-04-15T14:22:21.865Z,1.10
2023-04-15T14:24:49.259Z,1.25
2023-04-15T14:27:16.718Z,0.98
2023-04-15T14:29:43.875Z,0.95
2023-04-15T14:32:11.873Z,1.25
2023-04-15T14:34:39.799Z,1.00
2023-04-15T14:37:06.971Z,1.20
2023-04-15T14:39:34.182Z,1.30
2023-04-15T14:42:01.282Z,1.02
2023-04-15T14:44:28.419Z,0.93
2023-04-15T14:46:55.811Z,1.00
2023-04-15T14:49:23.648Z,1.35
2023-04-15T14:51:50.869Z,1.10
2023-04-15T14:54:18.028Z,1.10
2023-04-15T14:56:45.314Z,1.10
2023-04-15T14:59:12.670Z,1.02
2023-04-15T15:01:39.855Z,1.00
2023-04-15T15:04:07.124Z,1.20
2023-04-15T15:06:34.877Z,1.30
2023-04-15T15:09:02.316Z,1.07
2023-04-15T15:11:29.714Z,0.90
2023-04-15T15:13:57.073Z,1.08
2023-04-15T15:16:24.365Z,1.10
2023-04-15T15:18:51.737Z,1.10
2023-04-15T15:21:18.837Z,1.23
2023-04-15T15:23:46.411Z,1.65
2023-04-15T15:26:13.496Z,1.70
2023-04-15T15:28:40.673Z,1.20
2023-04-15T15:31:07.762Z,1.05
2023-04-15T15:33:34.916Z,1.27
2023-04-15T15:36:02.185Z,1.50
2023-04-15T15:38:29.324Z,1.35
2023-04-15T15:40:56.406Z,1.33
2023-04-15T15:43:23.583Z,1.70
2023-04-15T15:45:52.856Z,1.25
2023-04-15T15:48:20.050Z,1.55
2023-04-15T15:50:47.275Z,1.52
2023-04-15T15:53:20.541Z,1.35
2023-04-15T15:55:48.409Z,2.72
2023-04-15T15:58:16.071Z,1.17
2023-04-15T16:00:43.360Z,1.70
2023-04-15T16:03:10.625Z,1.40
2023-04-15T16:05:38.584Z,1.73
2023-04-15T16:08:05.992Z,1.35
2023-04-15T16:10:33.148Z,1.27
2023-04-15T16:13:00.370Z,1.23
2023-04-15T16:15:27.759Z,0.90
2023-04-15T16:17:54.922Z,1.50
2023-04-15T16:20:22.131Z,1.10
2023-04-15T16:22:49.278Z,1.40
2023-04-15T16:25:16.465Z,1.33
2023-04-15T16:27:57.190Z,1.92
2023-04-15T16:30:29.000Z,1.48
2023-04-15T16:32:56.204Z,1.50
2023-04-15T16:35:23.328Z,1.52
2023-04-15T16:37:50.575Z,1.50
2023-04-15T16:40:18.109Z,0.90
2023-04-15T16:42:45.375Z,1.50
2023-04-15T16:45:12.565Z,1.50
2023-04-15T16:47:39.704Z,1.00
2023-04-15T16:50:07.164Z,1.20
2023-04-15T16:52:34.347Z,1.48
2023-04-15T16:55:01.472Z,1.40
2023-04-15T16:57:39.997Z,1.15
2023-04-15T17:00:15.859Z,1.38
2023-04-15T17:02:43.164Z,1.30
2023-04-15T17:05:10.753Z,1.58
2023-04-15T17:07:37.831Z,1.63
2023-04-15T17:10:05.031Z,1.50
2023-04-15T17:12:32.126Z,1.83
2023-04-15T17:14:59.248Z,1.30
2023-04-15T17:17:26.314Z,1.58
2023-04-15T17:19:53.604Z,1.60
2023-04-15T17:22:20.807Z,1.52
2023-04-15T17:24:47.950Z,1.40
2023-04-15T17:27:15.088Z,2.35
2023-04-15T17:29:42.292Z,2.22
2023-04-15T17:32:10.914Z,1.70
2023-04-15T17:37:18.312Z,2.10
2023-04-15T17:39:45.702Z,1.60
2023-04-15T17:42:14.280Z,3.05
2023-04-15T17:47:08.602Z,1.90
2023-04-15T17:49:37.712Z,1.80
2023-04-15T17:52:04.844Z,1.77
2023-04-15T17:54:31.570Z,1.45
2023-04-15T17:56:59.426Z,1.50
2023-04-15T17:59:26.465Z,2.58
2023-04-15T18:01:53.258Z,2.63
2023-04-15T18:04:20.097Z,1.67
2023-04-15T18:06:47.155Z,1.40
2023-04-15T18:09:13.906Z,1.50
2023-04-15T18:11:40.978Z,1.48
2023-04-15T18:14:07.935Z,1.60
2023-04-15T18:16:34.777Z,1.67
2023-04-15T18:19:01.856Z,1.23
2023-04-15T18:21:29.623Z,1.70
2023-04-15T18:23:56.427Z,2.07
2023-04-15T18:26:24.162Z,1.88
2023-04-15T18:28:50.886Z,1.30
2023-04-15T18:31:17.714Z,1.63
2023-04-15T18:33:44.484Z,2.95
2023-04-15T18:36:12.201Z,2.42
2023-04-15T18:38:39.011Z,1.77
2023-04-15T18:41:07.173Z,1.67
2023-04-15T18:43:35.524Z,1.55
2023-04-15T18:46:03.815Z,1.70
2023-04-15T18:48:30.574Z,1.40
2023-04-15T18:50:58.463Z,1.30
2023-04-15T18:53:27.049Z,1.13
2023-04-15T18:58:20.599Z,1.45
2023-04-15T19:00:48.331Z,1.40
2023-04-15T19:03:15.674Z,1.20
2023-04-15T19:05:42.514Z,1.20
2023-04-15T19:08:10.231Z,1.30
2023-04-15T19:10:38.305Z,1.15
2023-04-15T19:13:05.085Z,1.17
2023-04-15T19:15:31.829Z,1.20
2023-04-15T19:17:58.537Z,1.40
2023-04-15T19:20:25.389Z,1.25
2023-04-15T19:22:54.054Z,1.42
2023-04-15T19:27:47.408Z,1.50
2023-04-15T19:30:14.353Z,1.58
2023-04-15T19:32:41.114Z,1.23
2023-04-15T19:35:10.029Z,3.17
2023-04-15T19:37:38.188Z,1.92
2023-04-15T19:40:05.391Z,1.52
2023-04-15T19:42:32.209Z,1.50
2023-04-15T19:44:59.970Z,1.45
2023-04-15T19:47:28.054Z,1.10
2023-04-15T19:49:54.758Z,1.55
2023-04-15T19:52:22.371Z,1.10
2023-04-15T19:54:49.267Z,1.80
2023-04-15T19:57:16.043Z,1.45
2023-04-15T19:59:42.752Z,1.17
2023-04-15T20:02:09.720Z,1.70
2023-04-15T20:04:36.688Z,1.67
2023-04-15T20:07:03.478Z,1.38
2023-04-15T20:09:31.228Z,1.52
2023-04-15T20:12:48.262Z,1.93
2023-04-15T20:14:44.737Z,1.70
2023-04-15T20:17:11.605Z,1.23
2023-04-15T20:19:38.459Z,1.70
2023-04-15T20:22:05.197Z,1.50
2023-04-15T20:24:32.986Z,1.42
2023-04-15T20:26:59.632Z,2.30
2023-04-15T20:29:26.485Z,1.85
2023-04-15T20:31:53.205Z,1.80
2023-04-15T20:34:19.829Z,2.00
2023-04-15T20:36:47.648Z,1.40
2023-04-15T20:39:14.328Z,8.67
2023-04-15T20:41:41.083Z,2.38
2023-04-15T20:44:07.885Z,1.67
2023-04-15T20:46:34.562Z,2.05
2023-04-15T20:49:01.301Z,1.42
2023-04-15T20:51:27.963Z,1.38
2023-04-15T20:53:55.541Z,1.20
2023-04-15T20:56:22.308Z,1.80
2023-04-15T20:58:48.999Z,2.42
2023-04-15T21:01:15.813Z,1.73
2023-04-15T21:03:42.626Z,1.63
2023-04-15T21:06:09.401Z,1.67
2023-04-15T21:08:36.156Z,2.10
2023-04-15T21:11:03.265Z,1.60
2023-04-15T21:13:29.959Z,10.48
2023-04-15T21:15:57.078Z,1.65
2023-04-15T21:18:24.263Z,1.35
2023-04-15T21:21:01.322Z,1.52
2023-04-15T21:23:29.681Z,2.00
2023-04-15T21:25:57.269Z,1.35
2023-04-15T21:28:27.877Z,1.35
2023-04-15T21:30:54.652Z,1.48
2023-04-15T21:33:22.632Z,1.50
2023-04-15T21:35:49.356Z,1.75
2023-04-15T21:38:16.019Z,1.10
2023-04-15T21:40:43.780Z,1.75
2023-04-15T21:43:10.683Z,1.75
2023-04-15T21:45:39.405Z,1.42
2023-04-15T21:48:08.278Z,1.05
2023-04-15T21:50:38.452Z,1.50
2023-04-15T21:53:08.358Z,1.42
2023-04-15T21:55:36.334Z,1.50
2023-04-15T21:58:03.559Z,2.03
2023-04-15T22:00:30.235Z,1.60
2023-04-15T22:02:57.056Z,1.95
2023-04-15T22:05:25.219Z,1.70
2023-04-15T22:07:51.875Z,2.10
2023-04-15T22:10:19.462Z,1.65
2023-04-15T22:12:46.258Z,1.80
2023-04-15T22:15:12.942Z,2.10
2023-04-15T22:17:39.733Z,1.55
2023-04-15T22:20:07.263Z,1.55
2023-04-15T22:22:44.344Z,1.75
2023-04-15T22:25:12.291Z,1.80
2023-04-15T22:27:38.994Z,1.65
2023-04-15T22:30:06.400Z,1.90
2023-04-15T22:32:33.096Z,3.10
2023-04-15T22:35:00.098Z,2.65
2023-04-15T22:37:30.422Z,3.20
2023-04-15T22:39:57.516Z,2.10
2023-04-15T22:42:24.278Z,2.22
2023-04-15T22:44:51.638Z,2.60
2023-04-15T22:47:19.137Z,2.83
2023-04-15T22:49:45.983Z,2.22
2023-04-15T22:52:23.395Z,2.00
2023-04-15T22:54:56.524Z,1.90
2023-04-15T22:57:23.218Z,2.20
2023-04-15T22:59:49.929Z,2.13
2023-04-15T23:02:17.039Z,2.58
2023-04-15T23:04:44.052Z,2.05
2023-04-15T23:07:11.128Z,2.92
2023-04-15T23:09:38.869Z,2.58
2023-04-15T23:12:06.452Z,2.45
2023-04-15T23:14:33.216Z,3.03
2023-04-15T23:16:59.896Z,3.20
2023-04-15T23:19:26.529Z,2.47
2023-04-15T23:21:53.505Z,2.50
2023-04-15T23:24:20.213Z,2.90
2023-04-15T23:26:46.886Z,3.03
2023-04-15T23:29:14.094Z,2.50
2023-04-15T23:31:41.778Z,2.47
2023-04-15T23:34:08.645Z,2.63
2023-04-15T23:36:35.399Z,2.67
2023-04-15T23:39:02.140Z,3.25
2023-04-15T23:41:28.828Z,2.75
2023-04-15T23:43:55.792Z,3.65
2023-04-15T23:46:22.539Z,2.22
2023-04-15T23:48:49.710Z,2.40
2023-04-15T23:51:16.577Z,2.22
2023-04-15T23:53:43.290Z,2.08
2023-04-15T23:56:11.111Z,3.15
2023-04-15T23:58:37.821Z,2.80
